Weather at Stuttgart Municipal Airport / Carl Humphrey Field

Public forecast

Using degrees Fahrenheit for public forecast. Weather courtesy of forecast.io.

Current aviation weather report (METAR) for Stuttgart Municipal Airport / Carl Humphrey Field

Retrieved 2020/09/20 09:56 UTC (31 minutes ago):

KSGT 200956Z AUTO 02007KT 10SM CLR 14/13 A3017 RMK AO2 SLP215 T01440133

Closest aviation forecast (TAF) to Stuttgart Municipal Airport / Carl Humphrey Field

Closest forecast is Pine Bluff Regional Airport, Grider Field, 31.2 nm (57.8 km) SW. Retrieved 2020/09/20 06:33 UTC (4 hours ago):

TAF KPBF 200531Z 2006/2106 03005KT P6SM SCT035 BKN045 FM201500 06009G16KT P6SM SCT250 FM210200 05005KT P6SM SKC